sensor_id;sensor_type;location;lat;lon;timestamp;P1;durP1;ratioP1;P2;durP2;ratioP2
8462;SDS011;4268;52.506;13.462;2022-10-17T00:01:25;8.27;;;7.57;;
8462;SDS011;4268;52.506;13.462;2022-10-17T00:03:50;8.00;;;7.30;;
8462;SDS011;4268;52.506;13.462;2022-10-17T00:06:16;8.17;;;7.50;;
8462;SDS011;4268;52.506;13.462;2022-10-17T00:08:42;8.03;;;7.33;;
8462;SDS011;4268;52.506;13.462;2022-10-17T00:11:16;7.67;;;6.97;;
8462;SDS011;4268;52.506;13.462;2022-10-17T00:13:44;7.70;;;7.10;;
8462;SDS011;4268;52.506;13.462;2022-10-17T00:16:10;8.03;;;7.33;;
8462;SDS011;4268;52.506;13.462;2022-10-17T00:18:36;8.50;;;7.30;;
8462;SDS011;4268;52.506;13.462;2022-10-17T00:21:01;7.20;;;6.70;;
8462;SDS011;4268;52.506;13.462;2022-10-17T00:23:27;7.07;;;6.57;;
8462;SDS011;4268;52.506;13.462;2022-10-17T00:25:58;7.60;;;6.90;;
8462;SDS011;4268;52.506;13.462;2022-10-17T00:28:25;6.00;;;5.53;;
8462;SDS011;4268;52.506;13.462;2022-10-17T00:30:54;6.57;;;6.00;;
8462;SDS011;4268;52.506;13.462;2022-10-17T00:33:21;6.77;;;6.10;;
8462;SDS011;4268;52.506;13.462;2022-10-17T00:35:46;5.77;;;5.37;;
8462;SDS011;4268;52.506;13.462;2022-10-17T00:38:11;5.97;;;5.50;;
8462;SDS011;4268;52.506;13.462;2022-10-17T00:40:37;6.00;;;5.60;;
8462;SDS011;4268;52.506;13.462;2022-10-17T00:43:02;6.30;;;5.80;;
8462;SDS011;4268;52.506;13.462;2022-10-17T00:45:29;5.93;;;5.43;;
8462;SDS011;4268;52.506;13.462;2022-10-17T00:47:59;5.87;;;5.37;;
8462;SDS011;4268;52.506;13.462;2022-10-17T00:50:28;5.87;;;5.33;;
8462;SDS011;4268;52.506;13.462;2022-10-17T00:52:54;5.90;;;5.40;;
8462;SDS011;4268;52.506;13.462;2022-10-17T00:55:26;6.07;;;5.67;;
8462;SDS011;4268;52.506;13.462;2022-10-17T00:57:55;5.57;;;5.20;;
8462;SDS011;4268;52.506;13.462;2022-10-17T01:00:24;5.70;;;5.20;;
8462;SDS011;4268;52.506;13.462;2022-10-17T01:02:49;5.93;;;5.43;;
8462;SDS011;4268;52.506;13.462;2022-10-17T01:05:15;5.87;;;5.30;;
8462;SDS011;4268;52.506;13.462;2022-10-17T01:07:42;5.70;;;5.30;;
8462;SDS011;4268;52.506;13.462;2022-10-17T01:10:09;6.03;;;5.50;;
8462;SDS011;4268;52.506;13.462;2022-10-17T01:18:26;5.93;;;5.53;;
8462;SDS011;4268;52.506;13.462;2022-10-17T01:21:14;5.53;;;5.13;;
8462;SDS011;4268;52.506;13.462;2022-10-17T01:27:19;5.10;;;4.80;;
8462;SDS011;4268;52.506;13.462;2022-10-17T01:32:54;5.67;;;5.17;;
8462;SDS011;4268;52.506;13.462;2022-10-17T01:35:41;6.10;;;5.50;;
8462;SDS011;4268;52.506;13.462;2022-10-17T01:38:32;5.77;;;5.33;;
8462;SDS011;4268;52.506;13.462;2022-10-17T01:41:04;5.20;;;4.90;;
8462;SDS011;4268;52.506;13.462;2022-10-17T01:43:58;5.30;;;4.90;;
8462;SDS011;4268;52.506;13.462;2022-10-17T01:46:36;5.20;;;4.90;;
8462;SDS011;4268;52.506;13.462;2022-10-17T01:49:03;6.10;;;5.60;;
8462;SDS011;4268;52.506;13.462;2022-10-17T01:51:34;5.03;;;4.73;;
8462;SDS011;4268;52.506;13.462;2022-10-17T01:56:43;5.67;;;5.17;;
8462;SDS011;4268;52.506;13.462;2022-10-17T01:59:13;5.60;;;5.20;;
8462;SDS011;4268;52.506;13.462;2022-10-17T02:01:49;6.47;;;5.97;;
8462;SDS011;4268;52.506;13.462;2022-10-17T02:04:17;6.17;;;5.67;;
8462;SDS011;4268;52.506;13.462;2022-10-17T02:06:42;6.80;;;5.90;;
8462;SDS011;4268;52.506;13.462;2022-10-17T02:09:15;7.10;;;5.97;;
8462;SDS011;4268;52.506;13.462;2022-10-17T02:11:49;6.67;;;6.17;;
8462;SDS011;4268;52.506;13.462;2022-10-17T02:14:31;7.30;;;6.70;;
8462;SDS011;4268;52.506;13.462;2022-10-17T02:17:23;8.30;;;7.60;;
8462;SDS011;4268;52.506;13.462;2022-10-17T02:20:15;10.30;;;9.70;;
8462;SDS011;4268;52.506;13.462;2022-10-17T02:23:02;12.10;;;11.30;;
8462;SDS011;4268;52.506;13.462;2022-10-17T02:25:50;12.63;;;11.93;;
8462;SDS011;4268;52.506;13.462;2022-10-17T02:31:06;11.67;;;10.87;;
8462;SDS011;4268;52.506;13.462;2022-10-17T02:33:41;12.53;;;11.73;;
8462;SDS011;4268;52.506;13.462;2022-10-17T02:36:14;11.03;;;10.40;;
8462;SDS011;4268;52.506;13.462;2022-10-17T02:38:43;10.77;;;9.97;;
8462;SDS011;4268;52.506;13.462;2022-10-17T02:41:10;10.80;;;10.00;;
8462;SDS011;4268;52.506;13.462;2022-10-17T02:43:39;10.10;;;9.50;;
8462;SDS011;4268;52.506;13.462;2022-10-17T02:46:09;11.57;;;10.87;;
8462;SDS011;4268;52.506;13.462;2022-10-17T02:48:37;10.73;;;9.93;;
8462;SDS011;4268;52.506;13.462;2022-10-17T02:51:26;10.63;;;10.03;;
8462;SDS011;4268;52.506;13.462;2022-10-17T02:54:03;10.63;;;10.03;;
8462;SDS011;4268;52.506;13.462;2022-10-17T02:57:07;10.37;;;9.77;;
8462;SDS011;4268;52.506;13.462;2022-10-17T02:59:35;9.77;;;9.13;;
8462;SDS011;4268;52.506;13.462;2022-10-17T03:02:03;9.47;;;8.87;;
8462;SDS011;4268;52.506;13.462;2022-10-17T03:04:29;10.73;;;10.07;;
8462;SDS011;4268;52.506;13.462;2022-10-17T03:06:55;11.40;;;10.73;;
8462;SDS011;4268;52.506;13.462;2022-10-17T03:09:20;10.77;;;10.10;;
8462;SDS011;4268;52.506;13.462;2022-10-17T03:11:46;11.77;;;11.07;;
8462;SDS011;4268;52.506;13.462;2022-10-17T03:14:11;11.03;;;10.13;;
8462;SDS011;4268;52.506;13.462;2022-10-17T03:16:37;10.73;;;9.93;;
8462;SDS011;4268;52.506;13.462;2022-10-17T03:19:02;9.83;;;9.23;;
8462;SDS011;4268;52.506;13.462;2022-10-17T03:21:28;10.67;;;9.93;;
8462;SDS011;4268;52.506;13.462;2022-10-17T03:23:54;11.03;;;10.27;;
8462;SDS011;4268;52.506;13.462;2022-10-17T03:26:19;11.87;;;11.17;;
8462;SDS011;4268;52.506;13.462;2022-10-17T03:28:45;12.13;;;11.47;;
8462;SDS011;4268;52.506;13.462;2022-10-17T03:31:14;12.97;;;12.07;;
8462;SDS011;4268;52.506;13.462;2022-10-17T03:33:40;11.30;;;10.50;;
8462;SDS011;4268;52.506;13.462;2022-10-17T03:36:10;11.30;;;10.60;;
8462;SDS011;4268;52.506;13.462;2022-10-17T03:38:41;12.63;;;11.93;;
8462;SDS011;4268;52.506;13.462;2022-10-17T03:41:07;12.83;;;12.03;;
8462;SDS011;4268;52.506;13.462;2022-10-17T03:43:34;12.20;;;11.37;;
8462;SDS011;4268;52.506;13.462;2022-10-17T03:46:00;12.13;;;11.43;;
8462;SDS011;4268;52.506;13.462;2022-10-17T03:48:26;12.17;;;11.37;;
8462;SDS011;4268;52.506;13.462;2022-10-17T03:51:00;12.77;;;12.10;;
8462;SDS011;4268;52.506;13.462;2022-10-17T03:53:30;14.50;;;13.63;;
8462;SDS011;4268;52.506;13.462;2022-10-17T03:55:55;16.73;;;15.83;;
8462;SDS011;4268;52.506;13.462;2022-10-17T03:58:21;16.93;;;15.93;;
8462;SDS011;4268;52.506;13.462;2022-10-17T04:00:47;17.53;;;16.53;;
8462;SDS011;4268;52.506;13.462;2022-10-17T04:03:12;16.07;;;15.20;;
8462;SDS011;4268;52.506;13.462;2022-10-17T04:05:38;18.47;;;17.53;;
8462;SDS011;4268;52.506;13.462;2022-10-17T04:08:03;17.23;;;16.33;;
8462;SDS011;4268;52.506;13.462;2022-10-17T04:10:29;15.80;;;15.00;;
8462;SDS011;4268;52.506;13.462;2022-10-17T04:12:55;16.67;;;15.67;;
8462;SDS011;4268;52.506;13.462;2022-10-17T04:15:20;17.27;;;16.17;;
8462;SDS011;4268;52.506;13.462;2022-10-17T04:17:46;15.43;;;14.53;;
8462;SDS011;4268;52.506;13.462;2022-10-17T04:20:11;15.87;;;14.87;;
8462;SDS011;4268;52.506;13.462;2022-10-17T04:22:37;15.80;;;14.77;;
8462;SDS011;4268;52.506;13.462;2022-10-17T04:25:03;16.10;;;15.20;;
8462;SDS011;4268;52.506;13.462;2022-10-17T04:27:29;15.23;;;14.40;;
8462;SDS011;4268;52.506;13.462;2022-10-17T04:29:54;14.77;;;14.00;;
8462;SDS011;4268;52.506;13.462;2022-10-17T04:32:20;15.00;;;14.10;;
8462;SDS011;4268;52.506;13.462;2022-10-17T04:34:49;15.50;;;14.60;;
8462;SDS011;4268;52.506;13.462;2022-10-17T04:37:14;16.23;;;15.40;;
8462;SDS011;4268;52.506;13.462;2022-10-17T04:39:40;17.37;;;16.27;;
8462;SDS011;4268;52.506;13.462;2022-10-17T04:42:06;17.07;;;15.97;;
8462;SDS011;4268;52.506;13.462;2022-10-17T04:44:31;16.27;;;15.43;;
8462;SDS011;4268;52.506;13.462;2022-10-17T04:46:57;16.33;;;15.00;;
8462;SDS011;4268;52.506;13.462;2022-10-17T04:49:23;17.00;;;16.00;;
8462;SDS011;4268;52.506;13.462;2022-10-17T04:51:49;15.30;;;14.40;;
8462;SDS011;4268;52.506;13.462;2022-10-17T04:54:14;16.30;;;15.20;;
8462;SDS011;4268;52.506;13.462;2022-10-17T04:56:40;15.73;;;14.83;;
8462;SDS011;4268;52.506;13.462;2022-10-17T04:59:05;15.80;;;14.77;;
8462;SDS011;4268;52.506;13.462;2022-10-17T05:01:31;17.03;;;16.03;;
8462;SDS011;4268;52.506;13.462;2022-10-17T05:03:56;17.50;;;16.50;;
8462;SDS011;4268;52.506;13.462;2022-10-17T05:06:23;17.73;;;16.73;;
8462;SDS011;4268;52.506;13.462;2022-10-17T05:08:49;17.60;;;16.50;;
8462;SDS011;4268;52.506;13.462;2022-10-17T05:11:22;18.67;;;17.67;;
8462;SDS011;4268;52.506;13.462;2022-10-17T05:13:57;19.23;;;18.03;;
8462;SDS011;4268;52.506;13.462;2022-10-17T05:16:24;20.27;;;19.17;;
8462;SDS011;4268;52.506;13.462;2022-10-17T05:18:51;21.80;;;20.60;;
8462;SDS011;4268;52.506;13.462;2022-10-17T05:21:18;23.83;;;22.50;;
8462;SDS011;4268;52.506;13.462;2022-10-17T05:23:45;22.27;;;21.07;;
8462;SDS011;4268;52.506;13.462;2022-10-17T05:26:11;21.87;;;20.67;;
8462;SDS011;4268;52.506;13.462;2022-10-17T05:28:37;22.50;;;21.10;;
8462;SDS011;4268;52.506;13.462;2022-10-17T05:31:03;22.70;;;21.40;;
8462;SDS011;4268;52.506;13.462;2022-10-17T05:33:30;22.40;;;21.20;;
8462;SDS011;4268;52.506;13.462;2022-10-17T05:35:56;22.87;;;21.57;;
8462;SDS011;4268;52.506;13.462;2022-10-17T05:38:22;22.90;;;21.63;;
8462;SDS011;4268;52.506;13.462;2022-10-17T05:40:47;22.90;;;21.30;;
8462;SDS011;4268;52.506;13.462;2022-10-17T05:43:13;22.80;;;21.40;;
8462;SDS011;4268;52.506;13.462;2022-10-17T05:45:38;21.13;;;19.83;;
8462;SDS011;4268;52.506;13.462;2022-10-17T05:48:04;20.23;;;18.93;;
8462;SDS011;4268;52.506;13.462;2022-10-17T05:50:30;21.83;;;20.43;;
8462;SDS011;4268;52.506;13.462;2022-10-17T05:52:56;23.17;;;21.97;;
8462;SDS011;4268;52.506;13.462;2022-10-17T05:55:21;23.77;;;22.47;;
8462;SDS011;4268;52.506;13.462;2022-10-17T05:57:47;21.20;;;19.97;;
8462;SDS011;4268;52.506;13.462;2022-10-17T06:00:14;25.87;;;24.33;;
8462;SDS011;4268;52.506;13.462;2022-10-17T06:02:40;24.10;;;22.80;;
8462;SDS011;4268;52.506;13.462;2022-10-17T06:05:07;26.57;;;25.17;;
8462;SDS011;4268;52.506;13.462;2022-10-17T06:07:34;22.40;;;21.00;;
8462;SDS011;4268;52.506;13.462;2022-10-17T06:10:00;23.70;;;22.43;;
8462;SDS011;4268;52.506;13.462;2022-10-17T06:12:25;22.80;;;21.50;;
8462;SDS011;4268;52.506;13.462;2022-10-17T06:14:53;21.13;;;19.63;;
8462;SDS011;4268;52.506;13.462;2022-10-17T06:17:19;19.73;;;18.53;;
8462;SDS011;4268;52.506;13.462;2022-10-17T06:19:45;19.10;;;17.93;;
8462;SDS011;4268;52.506;13.462;2022-10-17T06:22:10;20.40;;;19.20;;
8462;SDS011;4268;52.506;13.462;2022-10-17T06:24:36;18.70;;;17.50;;
8462;SDS011;4268;52.506;13.462;2022-10-17T06:27:02;18.47;;;17.27;;
8462;SDS011;4268;52.506;13.462;2022-10-17T06:29:28;17.77;;;16.77;;
8462;SDS011;4268;52.506;13.462;2022-10-17T06:31:53;18.40;;;17.27;;
8462;SDS011;4268;52.506;13.462;2022-10-17T06:34:19;18.13;;;17.20;;
8462;SDS011;4268;52.506;13.462;2022-10-17T06:36:44;19.20;;;18.20;;
8462;SDS011;4268;52.506;13.462;2022-10-17T06:39:10;20.30;;;19.20;;
8462;SDS011;4268;52.506;13.462;2022-10-17T06:41:35;18.80;;;17.80;;
8462;SDS011;4268;52.506;13.462;2022-10-17T06:44:01;22.83;;;21.30;;
8462;SDS011;4268;52.506;13.462;2022-10-17T06:46:32;17.60;;;16.47;;
8462;SDS011;4268;52.506;13.462;2022-10-17T06:48:58;18.40;;;17.50;;
8462;SDS011;4268;52.506;13.462;2022-10-17T06:51:23;10.00;;;9.40;;
8462;SDS011;4268;52.506;13.462;2022-10-17T06:53:49;8.93;;;8.27;;
8462;SDS011;4268;52.506;13.462;2022-10-17T06:56:14;6.20;;;5.80;;
8462;SDS011;4268;52.506;13.462;2022-10-17T06:58:40;6.83;;;6.33;;
8462;SDS011;4268;52.506;13.462;2022-10-17T07:01:07;6.90;;;6.40;;
8462;SDS011;4268;52.506;13.462;2022-10-17T07:03:34;5.03;;;4.70;;
8462;SDS011;4268;52.506;13.462;2022-10-17T07:06:00;5.30;;;4.80;;
8462;SDS011;4268;52.506;13.462;2022-10-17T07:08:25;5.10;;;4.60;;
8462;SDS011;4268;52.506;13.462;2022-10-17T07:10:51;6.63;;;4.37;;
8462;SDS011;4268;52.506;13.462;2022-10-17T07:13:18;7.13;;;5.27;;
8462;SDS011;4268;52.506;13.462;2022-10-17T07:15:44;8.73;;;4.30;;
8462;SDS011;4268;52.506;13.462;2022-10-17T07:18:10;5.30;;;4.70;;
8462;SDS011;4268;52.506;13.462;2022-10-17T07:20:36;6.10;;;5.07;;
8462;SDS011;4268;52.506;13.462;2022-10-17T07:23:02;4.93;;;4.20;;
8462;SDS011;4268;52.506;13.462;2022-10-17T07:25:28;5.40;;;4.53;;
8462;SDS011;4268;52.506;13.462;2022-10-17T07:27:53;5.83;;;4.53;;
8462;SDS011;4268;52.506;13.462;2022-10-17T07:30:19;5.27;;;4.77;;
8462;SDS011;4268;52.506;13.462;2022-10-17T07:32:45;6.43;;;5.83;;
8462;SDS011;4268;52.506;13.462;2022-10-17T07:35:11;6.53;;;4.73;;
8462;SDS011;4268;52.506;13.462;2022-10-17T07:37:37;6.13;;;5.50;;
8462;SDS011;4268;52.506;13.462;2022-10-17T07:40:04;5.27;;;4.87;;
8462;SDS011;4268;52.506;13.462;2022-10-17T07:42:31;7.17;;;6.00;;
8462;SDS011;4268;52.506;13.462;2022-10-17T07:44:57;9.07;;;5.57;;
8462;SDS011;4268;52.506;13.462;2022-10-17T07:47:23;5.73;;;5.17;;
8462;SDS011;4268;52.506;13.462;2022-10-17T07:49:49;7.20;;;6.50;;
8462;SDS011;4268;52.506;13.462;2022-10-17T07:52:15;6.53;;;5.93;;
8462;SDS011;4268;52.506;13.462;2022-10-17T07:54:41;5.37;;;4.87;;
8462;SDS011;4268;52.506;13.462;2022-10-17T07:57:07;5.90;;;5.40;;
8462;SDS011;4268;52.506;13.462;2022-10-17T07:59:33;5.40;;;4.90;;
8462;SDS011;4268;52.506;13.462;2022-10-17T08:02:00;5.37;;;4.87;;
8462;SDS011;4268;52.506;13.462;2022-10-17T08:04:26;5.50;;;5.00;;
8462;SDS011;4268;52.506;13.462;2022-10-17T08:06:52;4.70;;;4.40;;
8462;SDS011;4268;52.506;13.462;2022-10-17T08:09:18;5.13;;;4.73;;
8462;SDS011;4268;52.506;13.462;2022-10-17T08:11:44;5.60;;;5.10;;
8462;SDS011;4268;52.506;13.462;2022-10-17T08:14:10;5.20;;;4.80;;
8462;SDS011;4268;52.506;13.462;2022-10-17T08:16:37;5.10;;;4.70;;
8462;SDS011;4268;52.506;13.462;2022-10-17T08:19:03;5.70;;;5.10;;
8462;SDS011;4268;52.506;13.462;2022-10-17T08:21:29;4.97;;;4.47;;
8462;SDS011;4268;52.506;13.462;2022-10-17T08:23:55;4.83;;;4.43;;
8462;SDS011;4268;52.506;13.462;2022-10-17T08:26:21;4.90;;;4.40;;
8462;SDS011;4268;52.506;13.462;2022-10-17T08:28:47;5.50;;;4.40;;
8462;SDS011;4268;52.506;13.462;2022-10-17T08:31:14;4.20;;;3.90;;
8462;SDS011;4268;52.506;13.462;2022-10-17T08:33:43;5.70;;;5.23;;
8462;SDS011;4268;52.506;13.462;2022-10-17T08:36:09;4.50;;;4.20;;
8462;SDS011;4268;52.506;13.462;2022-10-17T08:38:37;5.40;;;4.47;;
8462;SDS011;4268;52.506;13.462;2022-10-17T08:41:10;5.07;;;4.60;;
8462;SDS011;4268;52.506;13.462;2022-10-17T08:46:31;5.37;;;4.57;;
8462;SDS011;4268;52.506;13.462;2022-10-17T08:49:01;5.37;;;4.87;;
8462;SDS011;4268;52.506;13.462;2022-10-17T08:51:31;5.17;;;4.73;;
8462;SDS011;4268;52.506;13.462;2022-10-17T08:54:13;5.80;;;5.17;;
8462;SDS011;4268;52.506;13.462;2022-10-17T08:56:45;4.50;;;4.10;;
8462;SDS011;4268;52.506;13.462;2022-10-17T08:59:19;4.80;;;4.40;;
8462;SDS011;4268;52.506;13.462;2022-10-17T09:04:42;4.47;;;4.07;;
8462;SDS011;4268;52.506;13.462;2022-10-17T09:07:19;4.47;;;4.10;;
8462;SDS011;4268;52.506;13.462;2022-10-17T09:20:45;4.63;;;4.23;;
8462;SDS011;4268;52.506;13.462;2022-10-17T09:23:19;4.67;;;4.37;;
8462;SDS011;4268;52.506;13.462;2022-10-17T09:25:49;4.67;;;4.20;;
8462;SDS011;4268;52.506;13.462;2022-10-17T09:28:31;4.07;;;3.80;;
8462;SDS011;4268;52.506;13.462;2022-10-17T09:31:00;5.10;;;3.83;;
8462;SDS011;4268;52.506;13.462;2022-10-17T09:33:46;6.60;;;5.10;;
8462;SDS011;4268;52.506;13.462;2022-10-17T09:38:43;6.37;;;3.80;;
8462;SDS011;4268;52.506;13.462;2022-10-17T09:41:15;3.93;;;3.40;;
8462;SDS011;4268;52.506;13.462;2022-10-17T09:43:47;5.20;;;3.93;;
8462;SDS011;4268;52.506;13.462;2022-10-17T09:46:26;4.30;;;3.67;;
8462;SDS011;4268;52.506;13.462;2022-10-17T09:48:58;4.33;;;3.60;;
8462;SDS011;4268;52.506;13.462;2022-10-17T09:51:28;3.90;;;3.60;;
8462;SDS011;4268;52.506;13.462;2022-10-17T09:54:02;3.90;;;3.60;;
8462;SDS011;4268;52.506;13.462;2022-10-17T09:56:31;3.80;;;3.50;;
8462;SDS011;4268;52.506;13.462;2022-10-17T09:59:38;4.07;;;3.67;;
8462;SDS011;4268;52.506;13.462;2022-10-17T10:02:24;4.23;;;3.90;;
8462;SDS011;4268;52.506;13.462;2022-10-17T10:07:23;4.30;;;3.90;;
8462;SDS011;4268;52.506;13.462;2022-10-17T10:09:51;4.27;;;3.60;;
8462;SDS011;4268;52.506;13.462;2022-10-17T10:12:19;4.23;;;3.83;;
8462;SDS011;4268;52.506;13.462;2022-10-17T10:14:48;4.40;;;3.80;;
8462;SDS011;4268;52.506;13.462;2022-10-17T10:17:25;4.50;;;3.50;;
8462;SDS011;4268;52.506;13.462;2022-10-17T10:19:57;4.10;;;3.80;;
8462;SDS011;4268;52.506;13.462;2022-10-17T10:22:23;3.50;;;3.30;;
8462;SDS011;4268;52.506;13.462;2022-10-17T10:25:05;5.23;;;3.53;;
8462;SDS011;4268;52.506;13.462;2022-10-17T10:27:39;4.47;;;4.00;;
8462;SDS011;4268;52.506;13.462;2022-10-17T10:30:05;3.53;;;3.30;;
8462;SDS011;4268;52.506;13.462;2022-10-17T10:32:40;4.10;;;3.73;;
8462;SDS011;4268;52.506;13.462;2022-10-17T10:35:21;4.33;;;3.83;;
8462;SDS011;4268;52.506;13.462;2022-10-17T10:37:48;3.73;;;3.43;;
8462;SDS011;4268;52.506;13.462;2022-10-17T10:40:22;5.57;;;3.60;;
8462;SDS011;4268;52.506;13.462;2022-10-17T10:42:55;3.60;;;3.30;;
8462;SDS011;4268;52.506;13.462;2022-10-17T10:45:23;4.00;;;3.47;;
8462;SDS011;4268;52.506;13.462;2022-10-17T10:51:07;4.40;;;3.40;;
8462;SDS011;4268;52.506;13.462;2022-10-17T10:56:12;3.70;;;3.40;;
8462;SDS011;4268;52.506;13.462;2022-10-17T11:01:18;3.93;;;3.53;;
8462;SDS011;4268;52.506;13.462;2022-10-17T11:03:53;4.00;;;3.70;;
8462;SDS011;4268;52.506;13.462;2022-10-17T11:06:33;3.50;;;3.20;;
8462;SDS011;4268;52.506;13.462;2022-10-17T11:09:06;3.40;;;3.20;;
8462;SDS011;4268;52.506;13.462;2022-10-17T11:12:08;3.63;;;3.33;;
8462;SDS011;4268;52.506;13.462;2022-10-17T11:17:27;3.80;;;3.50;;
8462;SDS011;4268;52.506;13.462;2022-10-17T11:22:48;3.97;;;3.67;;
8462;SDS011;4268;52.506;13.462;2022-10-17T11:27:54;4.20;;;3.90;;
8462;SDS011;4268;52.506;13.462;2022-10-17T11:30:20;4.10;;;3.77;;
8462;SDS011;4268;52.506;13.462;2022-10-17T11:32:55;4.27;;;3.90;;
8462;SDS011;4268;52.506;13.462;2022-10-17T11:35:27;4.60;;;4.30;;
8462;SDS011;4268;52.506;13.462;2022-10-17T11:40:45;3.70;;;3.40;;
8462;SDS011;4268;52.506;13.462;2022-10-17T11:43:26;3.90;;;3.60;;
8462;SDS011;4268;52.506;13.462;2022-10-17T11:46:14;4.00;;;3.63;;
8462;SDS011;4268;52.506;13.462;2022-10-17T11:54:26;3.60;;;3.37;;
8462;SDS011;4268;52.506;13.462;2022-10-17T12:00:37;3.60;;;3.33;;
8462;SDS011;4268;52.506;13.462;2022-10-17T12:03:06;3.57;;;3.23;;
8462;SDS011;4268;52.506;13.462;2022-10-17T12:05:49;3.90;;;3.60;;
8462;SDS011;4268;52.506;13.462;2022-10-17T12:11:00;4.37;;;3.60;;
8462;SDS011;4268;52.506;13.462;2022-10-17T12:18:45;4.20;;;3.80;;
8462;SDS011;4268;52.506;13.462;2022-10-17T12:21:53;4.97;;;3.67;;
8462;SDS011;4268;52.506;13.462;2022-10-17T12:24:33;4.23;;;3.60;;
8462;SDS011;4268;52.506;13.462;2022-10-17T12:30:04;3.73;;;3.37;;
8462;SDS011;4268;52.506;13.462;2022-10-17T12:32:36;4.97;;;3.70;;
8462;SDS011;4268;52.506;13.462;2022-10-17T12:35:02;4.27;;;3.60;;
8462;SDS011;4268;52.506;13.462;2022-10-17T12:43:00;3.70;;;3.40;;
8462;SDS011;4268;52.506;13.462;2022-10-17T12:45:51;8.47;;;3.60;;
8462;SDS011;4268;52.506;13.462;2022-10-17T12:53:48;5.13;;;3.50;;
8462;SDS011;4268;52.506;13.462;2022-10-17T12:56:37;3.60;;;3.30;;
8462;SDS011;4268;52.506;13.462;2022-10-17T12:59:29;3.60;;;3.30;;
8462;SDS011;4268;52.506;13.462;2022-10-17T13:01:55;3.40;;;3.20;;
8462;SDS011;4268;52.506;13.462;2022-10-17T13:04:23;3.37;;;3.17;;
8462;SDS011;4268;52.506;13.462;2022-10-17T13:06:51;3.93;;;3.57;;
8462;SDS011;4268;52.506;13.462;2022-10-17T13:11:52;3.13;;;2.93;;
8462;SDS011;4268;52.506;13.462;2022-10-17T13:14:21;3.83;;;3.40;;
8462;SDS011;4268;52.506;13.462;2022-10-17T13:16:52;3.50;;;3.30;;
8462;SDS011;4268;52.506;13.462;2022-10-17T13:19:23;5.57;;;3.50;;
8462;SDS011;4268;52.506;13.462;2022-10-17T13:21:56;3.17;;;2.97;;
8462;SDS011;4268;52.506;13.462;2022-10-17T13:24:34;3.60;;;3.30;;
8462;SDS011;4268;52.506;13.462;2022-10-17T13:27:02;3.90;;;3.40;;
8462;SDS011;4268;52.506;13.462;2022-10-17T13:29:29;3.63;;;3.20;;
8462;SDS011;4268;52.506;13.462;2022-10-17T13:32:00;3.60;;;3.27;;
8462;SDS011;4268;52.506;13.462;2022-10-17T13:34:28;3.40;;;3.00;;
8462;SDS011;4268;52.506;13.462;2022-10-17T13:36:58;5.00;;;3.20;;
8462;SDS011;4268;52.506;13.462;2022-10-17T13:39:28;3.20;;;3.00;;
8462;SDS011;4268;52.506;13.462;2022-10-17T13:41:59;3.40;;;3.10;;
8462;SDS011;4268;52.506;13.462;2022-10-17T13:44:30;3.87;;;3.00;;
8462;SDS011;4268;52.506;13.462;2022-10-17T13:46:58;3.80;;;3.30;;
8462;SDS011;4268;52.506;13.462;2022-10-17T13:49:31;3.40;;;3.20;;
8462;SDS011;4268;52.506;13.462;2022-10-17T13:52:01;3.53;;;3.03;;
8462;SDS011;4268;52.506;13.462;2022-10-17T13:54:41;4.53;;;3.37;;
8462;SDS011;4268;52.506;13.462;2022-10-17T13:57:25;4.47;;;3.30;;
8462;SDS011;4268;52.506;13.462;2022-10-17T13:59:53;3.60;;;3.40;;
8462;SDS011;4268;52.506;13.462;2022-10-17T14:02:33;4.37;;;3.60;;
8462;SDS011;4268;52.506;13.462;2022-10-17T14:05:09;3.10;;;2.90;;
8462;SDS011;4268;52.506;13.462;2022-10-17T14:12:51;3.70;;;3.40;;
8462;SDS011;4268;52.506;13.462;2022-10-17T14:15:18;3.30;;;3.10;;
8462;SDS011;4268;52.506;13.462;2022-10-17T14:17:53;3.43;;;3.10;;
8462;SDS011;4268;52.506;13.462;2022-10-17T14:20:21;3.33;;;3.13;;
8462;SDS011;4268;52.506;13.462;2022-10-17T14:22:48;3.40;;;3.20;;
8462;SDS011;4268;52.506;13.462;2022-10-17T14:25:27;3.10;;;2.90;;
8462;SDS011;4268;52.506;13.462;2022-10-17T14:28:01;3.40;;;3.20;;
8462;SDS011;4268;52.506;13.462;2022-10-17T14:30:45;4.40;;;3.33;;
8462;SDS011;4268;52.506;13.462;2022-10-17T14:33:18;3.63;;;3.33;;
8462;SDS011;4268;52.506;13.462;2022-10-17T14:35:48;4.10;;;3.53;;
8462;SDS011;4268;52.506;13.462;2022-10-17T14:38:15;4.10;;;3.70;;
8462;SDS011;4268;52.506;13.462;2022-10-17T14:40:48;3.57;;;3.37;;
8462;SDS011;4268;52.506;13.462;2022-10-17T14:43:18;3.50;;;3.30;;
8462;SDS011;4268;52.506;13.462;2022-10-17T14:45:46;3.57;;;3.10;;
8462;SDS011;4268;52.506;13.462;2022-10-17T14:48:13;3.17;;;2.97;;
8462;SDS011;4268;52.506;13.462;2022-10-17T14:53:38;4.07;;;2.90;;
8462;SDS011;4268;52.506;13.462;2022-10-17T14:56:19;3.50;;;3.20;;
8462;SDS011;4268;52.506;13.462;2022-10-17T14:58:50;3.70;;;3.40;;
8462;SDS011;4268;52.506;13.462;2022-10-17T15:01:17;7.10;;;3.40;;
8462;SDS011;4268;52.506;13.462;2022-10-17T15:03:45;4.10;;;3.10;;
8462;SDS011;4268;52.506;13.462;2022-10-17T15:06:21;3.70;;;3.27;;
8462;SDS011;4268;52.506;13.462;2022-10-17T15:08:51;3.50;;;3.20;;
8462;SDS011;4268;52.506;13.462;2022-10-17T15:11:16;4.40;;;4.07;;
8462;SDS011;4268;52.506;13.462;2022-10-17T15:13:42;5.07;;;3.70;;
8462;SDS011;4268;52.506;13.462;2022-10-17T15:16:12;4.00;;;3.70;;
8462;SDS011;4268;52.506;13.462;2022-10-17T15:18:42;3.60;;;3.40;;
8462;SDS011;4268;52.506;13.462;2022-10-17T15:21:17;4.17;;;3.73;;
8462;SDS011;4268;52.506;13.462;2022-10-17T15:23:45;3.43;;;3.23;;
8462;SDS011;4268;52.506;13.462;2022-10-17T15:26:15;3.90;;;3.50;;
8462;SDS011;4268;52.506;13.462;2022-10-17T15:28:43;3.53;;;3.27;;
8462;SDS011;4268;52.506;13.462;2022-10-17T15:31:10;3.03;;;2.80;;
8462;SDS011;4268;52.506;13.462;2022-10-17T15:33:36;3.67;;;3.30;;
8462;SDS011;4268;52.506;13.462;2022-10-17T15:36:02;3.53;;;3.20;;
8462;SDS011;4268;52.506;13.462;2022-10-17T15:38:28;3.40;;;3.10;;
8462;SDS011;4268;52.506;13.462;2022-10-17T15:40:54;3.70;;;3.40;;
8462;SDS011;4268;52.506;13.462;2022-10-17T15:43:19;3.33;;;3.03;;
8462;SDS011;4268;52.506;13.462;2022-10-17T15:45:45;3.40;;;3.10;;
8462;SDS011;4268;52.506;13.462;2022-10-17T15:48:16;3.50;;;3.20;;
8462;SDS011;4268;52.506;13.462;2022-10-17T15:50:44;3.60;;;3.40;;
8462;SDS011;4268;52.506;13.462;2022-10-17T15:53:12;3.67;;;3.37;;
8462;SDS011;4268;52.506;13.462;2022-10-17T15:55:38;3.73;;;3.43;;
8462;SDS011;4268;52.506;13.462;2022-10-17T15:58:04;4.70;;;3.70;;
8462;SDS011;4268;52.506;13.462;2022-10-17T16:00:30;4.23;;;3.50;;
8462;SDS011;4268;52.506;13.462;2022-10-17T16:02:55;3.80;;;3.50;;
8462;SDS011;4268;52.506;13.462;2022-10-17T16:05:22;4.13;;;3.60;;
8462;SDS011;4268;52.506;13.462;2022-10-17T16:07:53;3.90;;;3.60;;
8462;SDS011;4268;52.506;13.462;2022-10-17T16:10:19;5.37;;;4.00;;
8462;SDS011;4268;52.506;13.462;2022-10-17T16:12:46;4.90;;;3.87;;
8462;SDS011;4268;52.506;13.462;2022-10-17T16:15:15;6.50;;;4.30;;
8462;SDS011;4268;52.506;13.462;2022-10-17T16:17:42;5.53;;;4.87;;
8462;SDS011;4268;52.506;13.462;2022-10-17T16:20:11;4.20;;;3.90;;
8462;SDS011;4268;52.506;13.462;2022-10-17T16:22:37;4.17;;;3.77;;
8462;SDS011;4268;52.506;13.462;2022-10-17T16:25:07;4.87;;;3.80;;
8462;SDS011;4268;52.506;13.462;2022-10-17T16:27:47;3.80;;;3.50;;
8462;SDS011;4268;52.506;13.462;2022-10-17T16:30:15;4.90;;;3.90;;
8462;SDS011;4268;52.506;13.462;2022-10-17T16:32:41;4.87;;;3.80;;
8462;SDS011;4268;52.506;13.462;2022-10-17T16:35:07;4.70;;;4.30;;
8462;SDS011;4268;52.506;13.462;2022-10-17T16:37:33;4.97;;;4.33;;
8462;SDS011;4268;52.506;13.462;2022-10-17T16:39:59;6.17;;;4.47;;
8462;SDS011;4268;52.506;13.462;2022-10-17T16:42:25;5.17;;;4.47;;
8462;SDS011;4268;52.506;13.462;2022-10-17T16:44:51;4.37;;;3.97;;
8462;SDS011;4268;52.506;13.462;2022-10-17T16:47:17;3.90;;;3.60;;
8462;SDS011;4268;52.506;13.462;2022-10-17T16:49:42;5.10;;;3.63;;